sensor_id;sensor_type;location;lat;lon;timestamp;temperature;humidity
4509;DHT22;2267;48.816;9.230;2024-02-16T00:00:59;13.10;99.90
4509;DHT22;2267;48.816;9.230;2024-02-16T00:03:27;13.10;99.90
4509;DHT22;2267;48.816;9.230;2024-02-16T00:05:54;13.10;99.90
4509;DHT22;2267;48.816;9.230;2024-02-16T00:08:21;13.10;99.90
4509;DHT22;2267;48.816;9.230;2024-02-16T00:10:48;13.10;99.90
4509;DHT22;2267;48.816;9.230;2024-02-16T00:13:15;13.10;99.90
4509;DHT22;2267;48.816;9.230;2024-02-16T00:15:42;13.10;99.90
4509;DHT22;2267;48.816;9.230;2024-02-16T00:18:10;13.10;99.90
4509;DHT22;2267;48.816;9.230;2024-02-16T00:20:37;13.10;99.90
4509;DHT22;2267;48.816;9.230;2024-02-16T00:23:04;13.10;99.90
4509;DHT22;2267;48.816;9.230;2024-02-16T00:25:31;13.10;99.90
4509;DHT22;2267;48.816;9.230;2024-02-16T00:27:59;13.00;99.90
4509;DHT22;2267;48.816;9.230;2024-02-16T00:30:26;13.10;99.90
4509;DHT22;2267;48.816;9.230;2024-02-16T00:32:54;13.10;99.90
4509;DHT22;2267;48.816;9.230;2024-02-16T00:35:21;13.00;99.90
4509;DHT22;2267;48.816;9.230;2024-02-16T00:37:49;13.00;99.90
4509;DHT22;2267;48.816;9.230;2024-02-16T00:40:16;13.00;99.90
4509;DHT22;2267;48.816;9.230;2024-02-16T00:42:42;13.00;99.90
4509;DHT22;2267;48.816;9.230;2024-02-16T00:45:09;13.00;99.90
4509;DHT22;2267;48.816;9.230;2024-02-16T00:47:36;13.00;99.90
4509;DHT22;2267;48.816;9.230;2024-02-16T00:50:03;13.00;99.90
4509;DHT22;2267;48.816;9.230;2024-02-16T00:52:32;13.00;99.90
4509;DHT22;2267;48.816;9.230;2024-02-16T00:54:59;13.00;99.90
4509;DHT22;2267;48.816;9.230;2024-02-16T00:57:26;13.00;99.90
4509;DHT22;2267;48.816;9.230;2024-02-16T00:59:53;13.00;99.90
4509;DHT22;2267;48.816;9.230;2024-02-16T01:02:21;13.00;99.90
4509;DHT22;2267;48.816;9.230;2024-02-16T01:04:51;13.00;99.90
4509;DHT22;2267;48.816;9.230;2024-02-16T01:07:18;13.00;99.90
4509;DHT22;2267;48.816;9.230;2024-02-16T01:09:45;13.00;99.90
4509;DHT22;2267;48.816;9.230;2024-02-16T01:12:12;13.00;99.90
4509;DHT22;2267;48.816;9.230;2024-02-16T01:14:40;13.00;99.90
4509;DHT22;2267;48.816;9.230;2024-02-16T01:17:06;12.90;99.90
4509;DHT22;2267;48.816;9.230;2024-02-16T01:19:33;13.00;99.90
4509;DHT22;2267;48.816;9.230;2024-02-16T01:22:00;13.00;99.90
4509;DHT22;2267;48.816;9.230;2024-02-16T01:24:27;12.90;99.90
4509;DHT22;2267;48.816;9.230;2024-02-16T01:26:54;12.90;99.90
4509;DHT22;2267;48.816;9.230;2024-02-16T01:29:21;12.90;99.90
4509;DHT22;2267;48.816;9.230;2024-02-16T01:31:48;12.90;99.90
4509;DHT22;2267;48.816;9.230;2024-02-16T01:34:15;12.90;99.90
4509;DHT22;2267;48.816;9.230;2024-02-16T01:36:42;12.90;99.90
4509;DHT22;2267;48.816;9.230;2024-02-16T01:39:09;12.90;99.90
4509;DHT22;2267;48.816;9.230;2024-02-16T01:41:38;12.90;99.90
4509;DHT22;2267;48.816;9.230;2024-02-16T01:44:06;12.90;99.90
4509;DHT22;2267;48.816;9.230;2024-02-16T01:46:34;12.80;99.90
4509;DHT22;2267;48.816;9.230;2024-02-16T01:49:02;12.80;99.90
4509;DHT22;2267;48.816;9.230;2024-02-16T01:51:31;12.80;99.90
4509;DHT22;2267;48.816;9.230;2024-02-16T01:53:59;12.80;99.90
4509;DHT22;2267;48.816;9.230;2024-02-16T01:56:28;12.80;99.90
4509;DHT22;2267;48.816;9.230;2024-02-16T01:58:55;12.80;99.90
4509;DHT22;2267;48.816;9.230;2024-02-16T02:01:22;12.80;99.90
4509;DHT22;2267;48.816;9.230;2024-02-16T02:03:49;12.80;99.90
4509;DHT22;2267;48.816;9.230;2024-02-16T02:06:16;12.80;99.90
4509;DHT22;2267;48.816;9.230;2024-02-16T02:08:43;12.90;99.90
4509;DHT22;2267;48.816;9.230;2024-02-16T02:11:09;12.80;99.90
4509;DHT22;2267;48.816;9.230;2024-02-16T02:13:36;12.80;99.90
4509;DHT22;2267;48.816;9.230;2024-02-16T02:16:04;12.80;99.90
4509;DHT22;2267;48.816;9.230;2024-02-16T02:18:32;12.80;99.90
4509;DHT22;2267;48.816;9.230;2024-02-16T02:20:59;12.80;99.90
4509;DHT22;2267;48.816;9.230;2024-02-16T02:23:26;12.80;99.90
4509;DHT22;2267;48.816;9.230;2024-02-16T02:25:53;12.80;99.90
4509;DHT22;2267;48.816;9.230;2024-02-16T02:28:20;12.80;99.90
4509;DHT22;2267;48.816;9.230;2024-02-16T02:30:50;12.80;99.90
4509;DHT22;2267;48.816;9.230;2024-02-16T02:33:17;12.70;99.90
4509;DHT22;2267;48.816;9.230;2024-02-16T02:35:44;12.70;99.90
4509;DHT22;2267;48.816;9.230;2024-02-16T02:38:11;12.70;99.90
4509;DHT22;2267;48.816;9.230;2024-02-16T02:40:38;12.70;99.90
4509;DHT22;2267;48.816;9.230;2024-02-16T02:43:05;12.70;99.90
4509;DHT22;2267;48.816;9.230;2024-02-16T02:45:32;12.70;99.90
4509;DHT22;2267;48.816;9.230;2024-02-16T02:48:00;12.70;99.90
4509;DHT22;2267;48.816;9.230;2024-02-16T02:50:27;12.70;99.90
4509;DHT22;2267;48.816;9.230;2024-02-16T02:52:54;12.70;99.90
4509;DHT22;2267;48.816;9.230;2024-02-16T02:55:20;12.70;99.90
4509;DHT22;2267;48.816;9.230;2024-02-16T02:57:48;12.70;99.90
4509;DHT22;2267;48.816;9.230;2024-02-16T03:00:15;12.60;99.90
4509;DHT22;2267;48.816;9.230;2024-02-16T03:02:42;12.60;99.90
4509;DHT22;2267;48.816;9.230;2024-02-16T03:05:10;12.60;99.90
4509;DHT22;2267;48.816;9.230;2024-02-16T03:07:38;12.70;99.90
4509;DHT22;2267;48.816;9.230;2024-02-16T03:10:06;12.60;99.90
4509;DHT22;2267;48.816;9.230;2024-02-16T03:12:36;12.60;99.90
4509;DHT22;2267;48.816;9.230;2024-02-16T03:15:03;12.60;99.90
4509;DHT22;2267;48.816;9.230;2024-02-16T03:17:30;12.60;99.90
4509;DHT22;2267;48.816;9.230;2024-02-16T03:19:57;12.60;99.90
4509;DHT22;2267;48.816;9.230;2024-02-16T03:22:24;12.60;99.90
4509;DHT22;2267;48.816;9.230;2024-02-16T03:24:50;12.60;99.90
4509;DHT22;2267;48.816;9.230;2024-02-16T03:27:17;12.70;99.90
4509;DHT22;2267;48.816;9.230;2024-02-16T03:29:44;12.60;99.90
4509;DHT22;2267;48.816;9.230;2024-02-16T03:32:11;12.60;99.90
4509;DHT22;2267;48.816;9.230;2024-02-16T03:34:37;12.60;99.90
4509;DHT22;2267;48.816;9.230;2024-02-16T03:37:05;12.60;99.90
4509;DHT22;2267;48.816;9.230;2024-02-16T03:39:31;12.60;99.90
4509;DHT22;2267;48.816;9.230;2024-02-16T03:41:58;12.60;99.90
4509;DHT22;2267;48.816;9.230;2024-02-16T03:44:25;12.60;99.90
4509;DHT22;2267;48.816;9.230;2024-02-16T03:46:53;12.60;99.90
4509;DHT22;2267;48.816;9.230;2024-02-16T03:49:22;12.60;99.90
4509;DHT22;2267;48.816;9.230;2024-02-16T03:51:49;12.60;99.90
4509;DHT22;2267;48.816;9.230;2024-02-16T03:54:16;12.60;99.90
4509;DHT22;2267;48.816;9.230;2024-02-16T03:56:43;12.50;99.90
4509;DHT22;2267;48.816;9.230;2024-02-16T03:59:11;12.60;99.90
4509;DHT22;2267;48.816;9.230;2024-02-16T04:01:38;12.60;99.90
4509;DHT22;2267;48.816;9.230;2024-02-16T04:04:05;12.50;99.90
4509;DHT22;2267;48.816;9.230;2024-02-16T04:06:32;12.60;99.90
4509;DHT22;2267;48.816;9.230;2024-02-16T04:08:59;12.60;99.90
4509;DHT22;2267;48.816;9.230;2024-02-16T04:11:26;12.60;99.90
4509;DHT22;2267;48.816;9.230;2024-02-16T04:13:56;12.60;99.90
4509;DHT22;2267;48.816;9.230;2024-02-16T04:16:22;12.50;99.90
4509;DHT22;2267;48.816;9.230;2024-02-16T04:18:51;12.60;99.90
4509;DHT22;2267;48.816;9.230;2024-02-16T04:21:19;12.50;99.90
4509;DHT22;2267;48.816;9.230;2024-02-16T04:23:47;12.50;99.90
4509;DHT22;2267;48.816;9.230;2024-02-16T04:26:15;12.50;99.90
4509;DHT22;2267;48.816;9.230;2024-02-16T04:28:42;12.50;99.90
4509;DHT22;2267;48.816;9.230;2024-02-16T04:31:09;12.50;99.90
4509;DHT22;2267;48.816;9.230;2024-02-16T04:33:35;12.50;99.90
4509;DHT22;2267;48.816;9.230;2024-02-16T04:36:06;12.50;99.90
4509;DHT22;2267;48.816;9.230;2024-02-16T04:38:34;12.50;99.90
4509;DHT22;2267;48.816;9.230;2024-02-16T04:41:01;12.50;99.90
4509;DHT22;2267;48.816;9.230;2024-02-16T04:43:27;12.50;99.90
4509;DHT22;2267;48.816;9.230;2024-02-16T04:45:54;12.50;99.90
4509;DHT22;2267;48.816;9.230;2024-02-16T04:48:21;12.40;99.90
4509;DHT22;2267;48.816;9.230;2024-02-16T04:50:48;12.40;99.90
4509;DHT22;2267;48.816;9.230;2024-02-16T04:53:15;12.40;99.90
4509;DHT22;2267;48.816;9.230;2024-02-16T04:55:42;12.40;99.90
4509;DHT22;2267;48.816;9.230;2024-02-16T04:58:08;12.50;99.90
4509;DHT22;2267;48.816;9.230;2024-02-16T05:00:39;12.50;99.90
4509;DHT22;2267;48.816;9.230;2024-02-16T05:03:07;12.50;99.90
4509;DHT22;2267;48.816;9.230;2024-02-16T05:05:34;12.50;99.90
4509;DHT22;2267;48.816;9.230;2024-02-16T05:08:01;12.50;99.90
4509;DHT22;2267;48.816;9.230;2024-02-16T05:10:28;12.50;99.90
4509;DHT22;2267;48.816;9.230;2024-02-16T05:12:55;12.50;99.90
4509;DHT22;2267;48.816;9.230;2024-02-16T05:15:24;12.50;99.90
4509;DHT22;2267;48.816;9.230;2024-02-16T05:17:52;12.50;99.90
4509;DHT22;2267;48.816;9.230;2024-02-16T05:20:19;12.50;99.90
4509;DHT22;2267;48.816;9.230;2024-02-16T05:22:47;12.50;99.90
4509;DHT22;2267;48.816;9.230;2024-02-16T05:25:18;12.50;99.90
4509;DHT22;2267;48.816;9.230;2024-02-16T05:27:46;12.50;99.90
4509;DHT22;2267;48.816;9.230;2024-02-16T05:30:14;12.50;99.90
4509;DHT22;2267;48.816;9.230;2024-02-16T05:32:42;12.50;99.90
4509;DHT22;2267;48.816;9.230;2024-02-16T05:35:11;12.50;99.90
4509;DHT22;2267;48.816;9.230;2024-02-16T05:37:46;12.50;99.90
4509;DHT22;2267;48.816;9.230;2024-02-16T05:40:18;12.50;99.90
4509;DHT22;2267;48.816;9.230;2024-02-16T05:42:54;12.50;99.90
4509;DHT22;2267;48.816;9.230;2024-02-16T05:45:24;12.40;99.90
4509;DHT22;2267;48.816;9.230;2024-02-16T05:47:53;12.50;99.90
4509;DHT22;2267;48.816;9.230;2024-02-16T05:50:21;12.50;99.90
4509;DHT22;2267;48.816;9.230;2024-02-16T05:52:49;12.50;99.90
4509;DHT22;2267;48.816;9.230;2024-02-16T05:55:18;12.50;99.90
4509;DHT22;2267;48.816;9.230;2024-02-16T05:57:47;12.50;99.90
4509;DHT22;2267;48.816;9.230;2024-02-16T06:00:15;12.50;99.90
4509;DHT22;2267;48.816;9.230;2024-02-16T06:02:42;12.50;99.90
4509;DHT22;2267;48.816;9.230;2024-02-16T06:05:09;12.50;99.90
4509;DHT22;2267;48.816;9.230;2024-02-16T06:07:37;12.40;99.90
4509;DHT22;2267;48.816;9.230;2024-02-16T06:10:05;12.40;99.90
4509;DHT22;2267;48.816;9.230;2024-02-16T06:12:36;12.40;99.90
4509;DHT22;2267;48.816;9.230;2024-02-16T06:15:04;12.40;99.90
4509;DHT22;2267;48.816;9.230;2024-02-16T06:17:32;12.40;99.90
4509;DHT22;2267;48.816;9.230;2024-02-16T06:19:59;12.40;99.90
4509;DHT22;2267;48.816;9.230;2024-02-16T06:22:28;12.40;99.90
4509;DHT22;2267;48.816;9.230;2024-02-16T06:24:54;12.40;99.90
4509;DHT22;2267;48.816;9.230;2024-02-16T06:27:21;12.40;99.90
4509;DHT22;2267;48.816;9.230;2024-02-16T06:29:48;12.50;99.90
4509;DHT22;2267;48.816;9.230;2024-02-16T06:32:15;12.40;99.90
4509;DHT22;2267;48.816;9.230;2024-02-16T06:34:44;12.40;99.90
4509;DHT22;2267;48.816;9.230;2024-02-16T06:37:12;12.40;99.90
4509;DHT22;2267;48.816;9.230;2024-02-16T06:39:39;12.40;99.90
4509;DHT22;2267;48.816;9.230;2024-02-16T06:42:06;12.40;99.90
4509;DHT22;2267;48.816;9.230;2024-02-16T06:44:33;12.40;99.90
4509;DHT22;2267;48.816;9.230;2024-02-16T06:47:00;12.40;99.90
4509;DHT22;2267;48.816;9.230;2024-02-16T06:49:27;12.40;99.90
4509;DHT22;2267;48.816;9.230;2024-02-16T06:51:54;12.40;99.90
4509;DHT22;2267;48.816;9.230;2024-02-16T06:54:22;12.40;99.90
4509;DHT22;2267;48.816;9.230;2024-02-16T06:56:49;12.40;99.90
4509;DHT22;2267;48.816;9.230;2024-02-16T06:59:18;12.50;99.90
4509;DHT22;2267;48.816;9.230;2024-02-16T07:01:45;12.50;99.90
4509;DHT22;2267;48.816;9.230;2024-02-16T07:04:12;12.50;99.90
4509;DHT22;2267;48.816;9.230;2024-02-16T07:06:39;12.50;99.90
4509;DHT22;2267;48.816;9.230;2024-02-16T07:09:06;12.50;99.90
4509;DHT22;2267;48.816;9.230;2024-02-16T07:11:33;12.50;99.90
4509;DHT22;2267;48.816;9.230;2024-02-16T07:14:01;12.50;99.90
4509;DHT22;2267;48.816;9.230;2024-02-16T07:16:29;12.50;99.90
4509;DHT22;2267;48.816;9.230;2024-02-16T07:18:56;12.50;99.90
4509;DHT22;2267;48.816;9.230;2024-02-16T07:21:23;12.50;99.90
4509;DHT22;2267;48.816;9.230;2024-02-16T07:23:53;12.50;99.90
4509;DHT22;2267;48.816;9.230;2024-02-16T07:26:20;12.60;99.90
4509;DHT22;2267;48.816;9.230;2024-02-16T07:28:47;12.60;99.90
4509;DHT22;2267;48.816;9.230;2024-02-16T07:31:14;12.60;99.90
4509;DHT22;2267;48.816;9.230;2024-02-16T07:33:41;12.60;99.90
4509;DHT22;2267;48.816;9.230;2024-02-16T07:36:08;12.60;99.90
4509;DHT22;2267;48.816;9.230;2024-02-16T07:38:35;12.60;99.90
4509;DHT22;2267;48.816;9.230;2024-02-16T07:41:02;12.60;99.90
4509;DHT22;2267;48.816;9.230;2024-02-16T07:43:34;12.60;99.90
4509;DHT22;2267;48.816;9.230;2024-02-16T07:46:01;12.60;99.90
4509;DHT22;2267;48.816;9.230;2024-02-16T07:48:30;12.60;99.90
4509;DHT22;2267;48.816;9.230;2024-02-16T07:50:57;12.60;99.90
4509;DHT22;2267;48.816;9.230;2024-02-16T07:53:30;12.50;99.90
4509;DHT22;2267;48.816;9.230;2024-02-16T07:55:57;12.50;99.90
4509;DHT22;2267;48.816;9.230;2024-02-16T07:58:25;12.50;99.90
4509;DHT22;2267;48.816;9.230;2024-02-16T08:00:52;12.50;99.90
4509;DHT22;2267;48.816;9.230;2024-02-16T08:03:21;12.50;99.90
4509;DHT22;2267;48.816;9.230;2024-02-16T08:05:48;12.50;99.90
4509;DHT22;2267;48.816;9.230;2024-02-16T08:08:15;12.60;99.90
4509;DHT22;2267;48.816;9.230;2024-02-16T08:10:42;12.50;99.90
4509;DHT22;2267;48.816;9.230;2024-02-16T08:13:09;12.50;99.90
4509;DHT22;2267;48.816;9.230;2024-02-16T08:15:35;12.50;99.90
4509;DHT22;2267;48.816;9.230;2024-02-16T08:18:02;12.60;99.90
4509;DHT22;2267;48.816;9.230;2024-02-16T08:20:30;12.60;99.90
4509;DHT22;2267;48.816;9.230;2024-02-16T08:22:56;12.60;99.90
4509;DHT22;2267;48.816;9.230;2024-02-16T08:25:24;12.70;99.90
4509;DHT22;2267;48.816;9.230;2024-02-16T08:27:51;12.70;99.90
4509;DHT22;2267;48.816;9.230;2024-02-16T08:30:18;12.80;99.90
4509;DHT22;2267;48.816;9.230;2024-02-16T08:32:45;12.90;99.90
4509;DHT22;2267;48.816;9.230;2024-02-16T08:35:12;13.00;99.90
4509;DHT22;2267;48.816;9.230;2024-02-16T08:37:41;13.10;99.90
4509;DHT22;2267;48.816;9.230;2024-02-16T08:40:08;13.30;99.90
4509;DHT22;2267;48.816;9.230;2024-02-16T08:42:43;13.50;99.90
4509;DHT22;2267;48.816;9.230;2024-02-16T08:45:10;13.80;99.90
4509;DHT22;2267;48.816;9.230;2024-02-16T08:47:40;13.90;99.90
4509;DHT22;2267;48.816;9.230;2024-02-16T08:50:07;14.10;99.90
4509;DHT22;2267;48.816;9.230;2024-02-16T08:52:34;14.30;99.90
4509;DHT22;2267;48.816;9.230;2024-02-16T08:55:01;14.40;99.90
4509;DHT22;2267;48.816;9.230;2024-02-16T08:57:29;14.60;99.90
4509;DHT22;2267;48.816;9.230;2024-02-16T08:59:58;14.70;99.90
4509;DHT22;2267;48.816;9.230;2024-02-16T09:02:25;14.80;99.90
4509;DHT22;2267;48.816;9.230;2024-02-16T09:04:51;14.90;99.90
4509;DHT22;2267;48.816;9.230;2024-02-16T09:07:18;15.00;99.90
4509;DHT22;2267;48.816;9.230;2024-02-16T09:09:45;15.10;99.90
4509;DHT22;2267;48.816;9.230;2024-02-16T09:12:12;15.30;99.90
4509;DHT22;2267;48.816;9.230;2024-02-16T09:14:39;15.40;99.90
4509;DHT22;2267;48.816;9.230;2024-02-16T09:17:07;15.50;99.90
4509;DHT22;2267;48.816;9.230;2024-02-16T09:19:34;15.50;99.90
4509;DHT22;2267;48.816;9.230;2024-02-16T09:22:01;15.50;99.90
4509;DHT22;2267;48.816;9.230;2024-02-16T09:24:33;15.70;99.90
4509;DHT22;2267;48.816;9.230;2024-02-16T09:27:00;15.70;99.90
4509;DHT22;2267;48.816;9.230;2024-02-16T09:29:30;15.80;99.90
4509;DHT22;2267;48.816;9.230;2024-02-16T09:31:57;15.90;99.90
4509;DHT22;2267;48.816;9.230;2024-02-16T09:34:25;15.90;99.90
4509;DHT22;2267;48.816;9.230;2024-02-16T09:36:52;16.00;99.90
4509;DHT22;2267;48.816;9.230;2024-02-16T09:39:19;16.00;99.90
4509;DHT22;2267;48.816;9.230;2024-02-16T09:41:50;16.00;99.90
4509;DHT22;2267;48.816;9.230;2024-02-16T09:44:17;16.00;99.90
4509;DHT22;2267;48.816;9.230;2024-02-16T09:46:46;15.90;99.90
4509;DHT22;2267;48.816;9.230;2024-02-16T09:49:16;16.00;99.90
4509;DHT22;2267;48.816;9.230;2024-02-16T09:51:49;16.10;99.90
4509;DHT22;2267;48.816;9.230;2024-02-16T09:54:16;16.30;99.90
4509;DHT22;2267;48.816;9.230;2024-02-16T09:56:43;16.40;99.90
4509;DHT22;2267;48.816;9.230;2024-02-16T09:59:11;16.40;99.90
4509;DHT22;2267;48.816;9.230;2024-02-16T10:01:38;16.40;99.90
4509;DHT22;2267;48.816;9.230;2024-02-16T10:04:06;16.70;99.90
4509;DHT22;2267;48.816;9.230;2024-02-16T10:06:46;17.00;99.90
4509;DHT22;2267;48.816;9.230;2024-02-16T10:09:25;17.30;99.90
4509;DHT22;2267;48.816;9.230;2024-02-16T10:11:52;17.50;99.90
4509;DHT22;2267;48.816;9.230;2024-02-16T10:14:19;17.60;99.90
4509;DHT22;2267;48.816;9.230;2024-02-16T10:16:59;17.70;99.90
4509;DHT22;2267;48.816;9.230;2024-02-16T10:19:26;17.70;99.90
4509;DHT22;2267;48.816;9.230;2024-02-16T10:21:53;17.60;99.90
4509;DHT22;2267;48.816;9.230;2024-02-16T10:24:23;17.50;99.90
4509;DHT22;2267;48.816;9.230;2024-02-16T10:26:50;17.40;99.90
4509;DHT22;2267;48.816;9.230;2024-02-16T10:29:18;17.30;99.90
4509;DHT22;2267;48.816;9.230;2024-02-16T10:31:48;17.30;99.90
4509;DHT22;2267;48.816;9.230;2024-02-16T10:34:17;17.20;99.90
4509;DHT22;2267;48.816;9.230;2024-02-16T10:36:45;17.10;99.90
4509;DHT22;2267;48.816;9.230;2024-02-16T10:39:13;17.10;99.90
4509;DHT22;2267;48.816;9.230;2024-02-16T10:41:41;17.10;99.90
4509;DHT22;2267;48.816;9.230;2024-02-16T10:44:08;17.10;99.90
4509;DHT22;2267;48.816;9.230;2024-02-16T10:46:35;17.00;99.90
4509;DHT22;2267;48.816;9.230;2024-02-16T10:49:03;17.00;99.90
4509;DHT22;2267;48.816;9.230;2024-02-16T10:51:49;17.00;99.90
4509;DHT22;2267;48.816;9.230;2024-02-16T10:54:22;17.00;99.90
4509;DHT22;2267;48.816;9.230;2024-02-16T10:56:53;17.00;99.90
4509;DHT22;2267;48.816;9.230;2024-02-16T10:59:20;16.90;99.90
4509;DHT22;2267;48.816;9.230;2024-02-16T11:01:47;16.90;99.90
4509;DHT22;2267;48.816;9.230;2024-02-16T11:04:16;16.90;99.90
4509;DHT22;2267;48.816;9.230;2024-02-16T11:06:55;16.80;99.90
4509;DHT22;2267;48.816;9.230;2024-02-16T11:09:34;16.80;99.90
4509;DHT22;2267;48.816;9.230;2024-02-16T11:12:03;16.80;99.90
4509;DHT22;2267;48.816;9.230;2024-02-16T11:14:38;16.80;99.90
4509;DHT22;2267;48.816;9.230;2024-02-16T11:17:12;16.80;99.90
4509;DHT22;2267;48.816;9.230;2024-02-16T11:19:43;16.70;99.90
4509;DHT22;2267;48.816;9.230;2024-02-16T11:22:14;16.80;99.90
4509;DHT22;2267;48.816;9.230;2024-02-16T11:24:46;16.80;99.90
4509;DHT22;2267;48.816;9.230;2024-02-16T11:27:14;16.80;99.90
4509;DHT22;2267;48.816;9.230;2024-02-16T11:29:50;16.70;99.90
4509;DHT22;2267;48.816;9.230;2024-02-16T11:32:20;16.70;99.90
4509;DHT22;2267;48.816;9.230;2024-02-16T11:34:47;16.80;99.90
4509;DHT22;2267;48.816;9.230;2024-02-16T11:37:16;16.80;99.90
4509;DHT22;2267;48.816;9.230;2024-02-16T11:39:43;16.80;99.90
4509;DHT22;2267;48.816;9.230;2024-02-16T11:42:13;16.80;99.90
4509;DHT22;2267;48.816;9.230;2024-02-16T11:44:54;16.80;99.90
4509;DHT22;2267;48.816;9.230;2024-02-16T11:47:25;16.80;99.90
4509;DHT22;2267;48.816;9.230;2024-02-16T11:50:03;16.80;99.90
4509;DHT22;2267;48.816;9.230;2024-02-16T11:52:31;16.80;99.90
4509;DHT22;2267;48.816;9.230;2024-02-16T11:54:58;16.80;99.90
4509;DHT22;2267;48.816;9.230;2024-02-16T11:57:30;16.70;99.90
4509;DHT22;2267;48.816;9.230;2024-02-16T11:59:57;16.80;99.90
4509;DHT22;2267;48.816;9.230;2024-02-16T12:02:25;16.80;99.90
4509;DHT22;2267;48.816;9.230;2024-02-16T12:04:59;16.90;99.90
4509;DHT22;2267;48.816;9.230;2024-02-16T12:07:30;16.90;99.90
4509;DHT22;2267;48.816;9.230;2024-02-16T12:10:02;17.00;99.90
4509;DHT22;2267;48.816;9.230;2024-02-16T12:12:32;17.00;99.90
4509;DHT22;2267;48.816;9.230;2024-02-16T12:15:00;17.10;99.90
4509;DHT22;2267;48.816;9.230;2024-02-16T12:17:27;17.10;99.90
4509;DHT22;2267;48.816;9.230;2024-02-16T12:19:54;17.20;99.90
4509;DHT22;2267;48.816;9.230;2024-02-16T12:22:21;17.30;99.90
4509;DHT22;2267;48.816;9.230;2024-02-16T12:24:50;17.30;99.90
4509;DHT22;2267;48.816;9.230;2024-02-16T12:27:17;17.40;99.90
4509;DHT22;2267;48.816;9.230;2024-02-16T12:29:44;17.40;99.90
4509;DHT22;2267;48.816;9.230;2024-02-16T12:32:13;17.50;99.90
4509;DHT22;2267;48.816;9.230;2024-02-16T12:34:45;17.50;99.90
4509;DHT22;2267;48.816;9.230;2024-02-16T12:37:13;17.50;99.90
4509;DHT22;2267;48.816;9.230;2024-02-16T12:39:40;17.50;99.90
4509;DHT22;2267;48.816;9.230;2024-02-16T12:42:07;17.50;99.90
4509;DHT22;2267;48.816;9.230;2024-02-16T12:44:34;17.50;99.90
4509;DHT22;2267;48.816;9.230;2024-02-16T12:47:01;17.50;99.90
4509;DHT22;2267;48.816;9.230;2024-02-16T12:49:29;17.50;99.90
4509;DHT22;2267;48.816;9.230;2024-02-16T12:51:57;17.40;99.90
4509;DHT22;2267;48.816;9.230;2024-02-16T12:54:23;17.40;99.90
4509;DHT22;2267;48.816;9.230;2024-02-16T12:56:50;17.40;99.90
4509;DHT22;2267;48.816;9.230;2024-02-16T12:59:18;17.40;99.90
4509;DHT22;2267;48.816;9.230;2024-02-16T13:01:45;17.40;99.90
4509;DHT22;2267;48.816;9.230;2024-02-16T13:04:13;17.30;99.90
4509;DHT22;2267;48.816;9.230;2024-02-16T13:06:48;17.30;99.90
4509;DHT22;2267;48.816;9.230;2024-02-16T13:09:16;17.30;99.90
4509;DHT22;2267;48.816;9.230;2024-02-16T13:11:43;17.30;99.90
4509;DHT22;2267;48.816;9.230;2024-02-16T13:14:10;17.30;99.90
4509;DHT22;2267;48.816;9.230;2024-02-16T13:16:37;17.20;99.90
4509;DHT22;2267;48.816;9.230;2024-02-16T13:19:04;17.20;99.90
4509;DHT22;2267;48.816;9.230;2024-02-16T13:21:31;17.20;99.90
4509;DHT22;2267;48.816;9.230;2024-02-16T13:23:58;17.20;99.90
4509;DHT22;2267;48.816;9.230;2024-02-16T13:26:25;17.20;99.90
4509;DHT22;2267;48.816;9.230;2024-02-16T13:28:53;17.20;99.90
4509;DHT22;2267;48.816;9.230;2024-02-16T13:31:21;17.20;99.90
4509;DHT22;2267;48.816;9.230;2024-02-16T13:33:49;17.20;99.90
4509;DHT22;2267;48.816;9.230;2024-02-16T13:36:16;17.20;99.90
4509;DHT22;2267;48.816;9.230;2024-02-16T13:38:43;17.20;99.90
4509;DHT22;2267;48.816;9.230;2024-02-16T13:41:10;17.20;99.90
4509;DHT22;2267;48.816;9.230;2024-02-16T13:43:37;17.20;99.90
4509;DHT22;2267;48.816;9.230;2024-02-16T13:46:04;17.20;99.90
4509;DHT22;2267;48.816;9.230;2024-02-16T13:48:31;17.20;99.90
4509;DHT22;2267;48.816;9.230;2024-02-16T13:50:58;17.20;99.90
4509;DHT22;2267;48.816;9.230;2024-02-16T13:53:27;17.20;99.90
4509;DHT22;2267;48.816;9.230;2024-02-16T13:55:54;17.20;99.90
4509;DHT22;2267;48.816;9.230;2024-02-16T13:58:22;17.20;99.90
4509;DHT22;2267;48.816;9.230;2024-02-16T14:00:49;17.20;99.90
4509;DHT22;2267;48.816;9.230;2024-02-16T14:03:16;17.20;99.90
4509;DHT22;2267;48.816;9.230;2024-02-16T14:05:44;17.20;99.90
4509;DHT22;2267;48.816;9.230;2024-02-16T14:08:12;17.20;99.90
4509;DHT22;2267;48.816;9.230;2024-02-16T14:10:39;17.20;99.90
4509;DHT22;2267;48.816;9.230;2024-02-16T14:13:06;17.20;99.90
4509;DHT22;2267;48.816;9.230;2024-02-16T14:15:33;17.20;99.90
4509;DHT22;2267;48.816;9.230;2024-02-16T14:18:00;17.10;99.90
4509;DHT22;2267;48.816;9.230;2024-02-16T14:20:37;17.10;99.90
4509;DHT22;2267;48.816;9.230;2024-02-16T14:23:05;17.10;99.90
4509;DHT22;2267;48.816;9.230;2024-02-16T14:25:35;17.10;99.90
4509;DHT22;2267;48.816;9.230;2024-02-16T14:28:04;17.10;99.90
4509;DHT22;2267;48.816;9.230;2024-02-16T14:30:31;17.00;99.90
4509;DHT22;2267;48.816;9.230;2024-02-16T14:33:01;17.00;99.90
4509;DHT22;2267;48.816;9.230;2024-02-16T14:35:31;17.00;99.90
4509;DHT22;2267;48.816;9.230;2024-02-16T14:38:03;17.00;99.90
4509;DHT22;2267;48.816;9.230;2024-02-16T14:40:32;17.00;99.90
4509;DHT22;2267;48.816;9.230;2024-02-16T14:43:00;17.00;99.90
4509;DHT22;2267;48.816;9.230;2024-02-16T14:45:27;17.00;99.90
4509;DHT22;2267;48.816;9.230;2024-02-16T14:47:54;17.00;99.90
4509;DHT22;2267;48.816;9.230;2024-02-16T14:50:22;17.00;99.90
4509;DHT22;2267;48.816;9.230;2024-02-16T14:52:49;17.00;99.90
4509;DHT22;2267;48.816;9.230;2024-02-16T14:55:16;17.00;99.90
4509;DHT22;2267;48.816;9.230;2024-02-16T14:57:43;17.00;99.90
4509;DHT22;2267;48.816;9.230;2024-02-16T15:00:11;17.00;99.90
4509;DHT22;2267;48.816;9.230;2024-02-16T15:02:39;17.00;99.90
4509;DHT22;2267;48.816;9.230;2024-02-16T15:05:08;17.00;99.90
4509;DHT22;2267;48.816;9.230;2024-02-16T15:07:36;17.00;99.90
4509;DHT22;2267;48.816;9.230;2024-02-16T15:10:03;16.90;99.90
4509;DHT22;2267;48.816;9.230;2024-02-16T15:12:30;17.00;99.90
4509;DHT22;2267;48.816;9.230;2024-02-16T15:14:58;16.90;99.90
4509;DHT22;2267;48.816;9.230;2024-02-16T15:17:26;16.90;99.90
4509;DHT22;2267;48.816;9.230;2024-02-16T15:19:53;16.90;99.90
4509;DHT22;2267;48.816;9.230;2024-02-16T15:22:21;16.90;99.90
4509;DHT22;2267;48.816;9.230;2024-02-16T15:24:48;16.90;99.90
4509;DHT22;2267;48.816;9.230;2024-02-16T15:27:15;16.90;99.90
4509;DHT22;2267;48.816;9.230;2024-02-16T15:29:42;16.90;99.90
4509;DHT22;2267;48.816;9.230;2024-02-16T15:32:11;16.90;99.90
4509;DHT22;2267;48.816;9.230;2024-02-16T15:34:38;16.90;99.90
4509;DHT22;2267;48.816;9.230;2024-02-16T15:37:06;16.90;99.90
4509;DHT22;2267;48.816;9.230;2024-02-16T15:39:32;16.90;99.90
4509;DHT22;2267;48.816;9.230;2024-02-16T15:41:59;16.90;99.90
4509;DHT22;2267;48.816;9.230;2024-02-16T15:44:26;16.90;99.90
4509;DHT22;2267;48.816;9.230;2024-02-16T15:46:54;16.90;99.90
4509;DHT22;2267;48.816;9.230;2024-02-16T15:49:21;16.90;99.90
4509;DHT22;2267;48.816;9.230;2024-02-16T15:51:48;16.90;99.90
4509;DHT22;2267;48.816;9.230;2024-02-16T15:54:15;16.90;99.90
4509;DHT22;2267;48.816;9.230;2024-02-16T15:56:42;16.80;99.90
4509;DHT22;2267;48.816;9.230;2024-02-16T15:59:09;16.80;99.90
4509;DHT22;2267;48.816;9.230;2024-02-16T16:01:36;16.80;99.90
4509;DHT22;2267;48.816;9.230;2024-02-16T16:04:03;16.80;99.90
4509;DHT22;2267;48.816;9.230;2024-02-16T16:06:30;16.80;99.90